Time;durP1;ratioP1;P1;durP2;ratioP2;P2;SDS_P1;SDS_P2;PMS_P1;PMS_P2;Temp;Humidity;BMP_temperature;BMP_pressure;BME280_temperature;BME280_humidity;BME280_pressure;Samples;Min_cycle;Max_cycle;Signal;HPM_P1;HPM_P2
2023/07/23 00:00:26;;;;;;;3.17;2.87;;;23.10;56.90;;;;;;5053963;28;20214;-72
2023/07/23 00:02:53;;;;;;;3.57;2.90;;;23.10;57.00;;;;;;5054385;28;20234;-72
2023/07/23 00:05:20;;;;;;;3.37;2.97;;;23.00;57.20;;;;;;5054255;28;20220;-72
2023/07/23 00:07:46;;;;;;;3.50;3.20;;;23.00;57.20;;;;;;5054108;28;20226;-72
2023/07/23 00:10:13;;;;;;;3.33;2.93;;;22.80;57.50;;;;;;5054018;28;20212;-71
2023/07/23 00:12:41;;;;;;;3.67;3.10;;;22.80;57.70;;;;;;5054068;28;20212;-72
2023/07/23 00:15:09;;;;;;;4.63;3.20;;;22.70;57.90;;;;;;5053865;28;20225;-71
2023/07/23 00:17:36;;;;;;;6.47;3.20;;;22.60;58.20;;;;;;5054328;28;20201;-71
2023/07/23 00:20:04;;;;;;;3.67;3.20;;;22.50;58.40;;;;;;5053843;28;20222;-72
2023/07/23 00:22:31;;;;;;;3.33;3.03;;;22.40;58.70;;;;;;5053708;28;20283;-72
2023/07/23 00:24:58;;;;;;;3.07;2.87;;;22.40;59.60;;;;;;5054027;28;20206;-71
2023/07/23 00:27:24;;;;;;;4.07;2.70;;;22.40;59.10;;;;;;5054120;28;20261;-72
2023/07/23 00:29:52;;;;;;;3.83;3.20;;;22.40;59.30;;;;;;5053405;28;20305;-72
2023/07/23 00:32:19;;;;;;;4.47;3.13;;;22.40;59.40;;;;;;5054006;28;20221;-71
2023/07/23 00:34:46;;;;;;;2.90;2.60;;;22.40;59.20;;;;;;5053894;28;20230;-72
2023/07/23 00:37:12;;;;;;;3.40;3.10;;;22.40;59.20;;;;;;5053593;28;20205;-72
2023/07/23 00:39:40;;;;;;;4.53;3.10;;;22.40;59.30;;;;;;5053161;28;20233;-71
2023/07/23 00:42:07;;;;;;;3.40;3.00;;;22.40;59.30;;;;;;5053232;28;20650;-72
2023/07/23 00:44:33;;;;;;;3.10;2.80;;;22.40;59.40;;;;;;5053341;28;20700;-72
2023/07/23 00:47:03;;;;;;;3.93;3.20;;;22.40;59.40;;;;;;5053535;28;20197;-72
2023/07/23 00:49:30;;;;;;;3.50;2.73;;;22.40;59.40;;;;;;5053078;28;20252;-72
2023/07/23 00:51:58;;;;;;;3.53;3.00;;;22.50;59.50;;;;;;5052769;28;20569;-72
2023/07/23 00:54:25;;;;;;;3.93;3.00;;;22.50;59.40;;;;;;5053001;28;20205;-72
2023/07/23 00:56:53;;;;;;;3.43;3.13;;;22.50;59.30;;;;;;5053660;28;20228;-72
2023/07/23 00:59:20;;;;;;;3.20;2.87;;;22.50;59.20;;;;;;5052748;28;20210;-72
2023/07/23 01:01:48;;;;;;;4.43;3.00;;;22.50;59.60;;;;;;5052540;28;20240;-72
2023/07/23 01:04:17;;;;;;;3.27;2.97;;;22.50;59.00;;;;;;5052722;28;20268;-72
2023/07/23 01:06:45;;;;;;;5.50;2.90;;;22.50;59.00;;;;;;5052868;28;20687;-72
2023/07/23 01:09:12;;;;;;;3.30;3.00;;;22.60;59.00;;;;;;5052714;28;20300;-72
2023/07/23 01:11:39;;;;;;;3.00;2.70;;;22.60;59.00;;;;;;5052147;28;20234;-72
2023/07/23 01:14:07;;;;;;;5.10;2.80;;;22.60;59.00;;;;;;5052559;28;20565;-72
2023/07/23 01:16:34;;;;;;;3.83;3.43;;;22.60;59.00;;;;;;5052537;28;20226;-72
2023/07/23 01:19:02;;;;;;;3.00;2.70;;;22.60;59.00;;;;;;5051756;28;20295;-72
2023/07/23 01:21:30;;;;;;;3.73;3.30;;;22.60;59.00;;;;;;5051754;28;20222;-72
2023/07/23 01:23:58;;;;;;;3.93;2.93;;;22.60;59.10;;;;;;5052368;28;20210;-72
2023/07/23 01:26:25;;;;;;;3.50;3.20;;;22.50;59.20;;;;;;5052599;28;20201;-72
2023/07/23 01:28:52;;;;;;;4.37;2.97;;;22.50;59.20;;;;;;5052801;28;20229;-72
2023/07/23 01:31:18;;;;;;;3.27;2.97;;;22.50;59.20;;;;;;5052578;28;20212;-72
2023/07/23 01:33:46;;;;;;;3.67;3.23;;;22.60;59.30;;;;;;5052890;28;20208;-72
2023/07/23 01:36:14;;;;;;;3.80;2.87;;;22.60;59.30;;;;;;5051896;28;20673;-72
2023/07/23 01:38:41;;;;;;;4.13;3.27;;;22.50;59.40;;;;;;5052441;28;20260;-72
2023/07/23 01:41:09;;;;;;;3.47;3.17;;;22.50;59.50;;;;;;5052479;28;20202;-72
2023/07/23 01:43:37;;;;;;;3.80;3.00;;;22.50;59.50;;;;;;5052480;28;20229;-72
2023/07/23 01:46:04;;;;;;;3.10;2.83;;;22.50;59.60;;;;;;5052671;28;20248;-72
2023/07/23 01:48:31;;;;;;;3.97;3.50;;;22.50;59.80;;;;;;5052400;28;20321;-72
2023/07/23 01:50:58;;;;;;;4.23;3.23;;;22.40;59.80;;;;;;5051865;28;20208;-72
2023/07/23 01:53:24;;;;;;;4.67;2.97;;;22.50;60.00;;;;;;5052276;28;20258;-72
2023/07/23 01:55:51;;;;;;;3.10;2.70;;;22.40;59.90;;;;;;5052310;28;20190;-72
2023/07/23 01:58:19;;;;;;;3.10;2.87;;;22.40;60.10;;;;;;5052499;28;20255;-72
2023/07/23 02:00:46;;;;;;;3.53;2.77;;;22.40;60.10;;;;;;5052163;28;20211;-72
2023/07/23 02:03:13;;;;;;;2.77;2.57;;;22.40;60.10;;;;;;5052533;28;20232;-72
2023/07/23 02:05:40;;;;;;;3.70;3.30;;;22.40;60.30;;;;;;5052353;28;20656;-72
2023/07/23 02:08:06;;;;;;;3.20;2.80;;;22.40;60.40;;;;;;5052604;28;20288;-72
2023/07/23 02:10:33;;;;;;;3.93;3.30;;;22.40;60.20;;;;;;5051583;28;20807;-72
2023/07/23 02:13:00;;;;;;;3.50;2.90;;;22.40;60.30;;;;;;5052577;28;20204;-71
2023/07/23 02:15:30;;;;;;;4.43;2.90;;;22.40;60.50;;;;;;5052038;28;20780;-72
2023/07/23 02:17:56;;;;;;;4.63;3.20;;;22.40;60.50;;;;;;5052580;28;20613;-72
2023/07/23 02:20:23;;;;;;;3.83;2.60;;;22.40;60.40;;;;;;5051750;28;20233;-72
2023/07/23 02:22:50;;;;;;;3.10;2.80;;;22.40;60.40;;;;;;5052070;28;20228;-72
2023/07/23 02:25:17;;;;;;;3.73;2.83;;;22.40;60.40;;;;;;5052267;28;20210;-72
2023/07/23 02:27:44;;;;;;;4.17;2.90;;;22.40;60.50;;;;;;5052180;28;20190;-72
2023/07/23 02:30:11;;;;;;;3.03;2.73;;;22.40;60.60;;;;;;5051876;28;20228;-72
2023/07/23 02:32:39;;;;;;;2.90;2.70;;;22.50;60.70;;;;;;5051987;28;20212;-72
2023/07/23 02:35:07;;;;;;;3.07;2.77;;;22.50;60.60;;;;;;5052090;28;20225;-72
2023/07/23 02:37:34;;;;;;;3.13;2.63;;;22.50;60.60;;;;;;5051887;28;20217;-72
2023/07/23 02:40:01;;;;;;;3.07;2.70;;;22.50;60.70;;;;;;5052055;28;20206;-72
2023/07/23 02:42:28;;;;;;;4.27;2.60;;;22.50;60.70;;;;;;5051895;28;20228;-72
2023/07/23 02:44:54;;;;;;;4.00;2.70;;;22.50;60.20;;;;;;5052057;28;20571;-72
2023/07/23 02:47:21;;;;;;;3.40;2.50;;;22.50;60.80;;;;;;5054346;28;20229;-72
2023/07/23 02:49:49;;;;;;;2.73;2.50;;;22.60;60.80;;;;;;5055912;28;20205;-72
2023/07/23 02:52:16;;;;;;;3.00;2.70;;;22.60;60.70;;;;;;5055521;28;20226;-72
2023/07/23 02:54:43;;;;;;;3.50;3.10;;;22.60;60.60;;;;;;5055527;28;20210;-72
2023/07/23 02:57:10;;;;;;;3.27;2.67;;;22.70;60.50;;;;;;5055806;28;20202;-72
2023/07/23 02:59:37;;;;;;;3.13;2.83;;;22.70;60.30;;;;;;5055478;28;20202;-71
2023/07/23 03:02:04;;;;;;;3.03;2.60;;;22.70;60.10;;;;;;5055014;28;20216;-72
2023/07/23 03:04:31;;;;;;;2.70;2.33;;;22.70;60.20;;;;;;5055719;28;20257;-72
2023/07/23 03:06:59;;;;;;;3.30;3.00;;;22.60;60.20;;;;;;5055638;28;20287;-72
2023/07/23 03:09:26;;;;;;;2.60;2.30;;;22.50;60.40;;;;;;5052736;28;20700;-72
2023/07/23 03:11:52;;;;;;;3.40;2.77;;;22.50;60.70;;;;;;5053484;28;20210;-72
2023/07/23 03:14:19;;;;;;;4.43;2.93;;;22.40;60.80;;;;;;5055235;28;20234;-72
2023/07/23 03:16:46;;;;;;;3.20;2.90;;;22.30;61.00;;;;;;5055018;28;20222;-72
2023/07/23 03:19:13;;;;;;;4.93;2.50;;;22.20;61.10;;;;;;5055161;28;20229;-72
2023/07/23 03:21:40;;;;;;;4.10;3.13;;;22.20;61.30;;;;;;5054993;28;20208;-72
2023/07/23 03:24:08;;;;;;;3.03;2.73;;;22.20;61.40;;;;;;5054869;28;20328;-72
2023/07/23 03:26:35;;;;;;;2.67;2.37;;;22.20;61.50;;;;;;5054948;28;20217;-72
2023/07/23 03:29:02;;;;;;;2.80;2.50;;;22.20;61.60;;;;;;5055091;28;20197;-72
2023/07/23 03:31:29;;;;;;;3.17;2.80;;;22.10;61.60;;;;;;5054284;28;20182;-72
2023/07/23 03:33:56;;;;;;;3.33;2.80;;;22.20;61.70;;;;;;5054843;28;20658;-72
2023/07/23 03:36:23;;;;;;;2.53;2.33;;;22.20;61.60;;;;;;5055083;28;20201;-72
2023/07/23 03:38:50;;;;;;;3.07;2.77;;;22.10;61.40;;;;;;5055051;28;20206;-72
2023/07/23 03:41:19;;;;;;;4.77;3.10;;;22.10;61.60;;;;;;5054368;28;20577;-72
2023/07/23 03:43:47;;;;;;;3.50;2.90;;;22.10;62.50;;;;;;5054708;28;20230;-72
2023/07/23 03:46:14;;;;;;;3.13;2.83;;;22.00;62.50;;;;;;5054393;28;20233;-72
2023/07/23 03:48:41;;;;;;;4.40;2.70;;;21.90;62.00;;;;;;5054685;28;20217;-72
2023/07/23 03:51:08;;;;;;;2.80;2.57;;;21.90;63.10;;;;;;5054376;28;20247;-72
2023/07/23 03:53:34;;;;;;;3.57;2.73;;;21.80;62.40;;;;;;5054720;28;20208;-72
2023/07/23 03:56:01;;;;;;;2.67;2.40;;;21.80;62.70;;;;;;5054506;28;20229;-72
2023/07/23 03:58:29;;;;;;;4.60;2.80;;;21.70;62.80;;;;;;5054169;28;20196;-72
2023/07/23 04:00:56;;;;;;;3.30;3.00;;;21.70;63.10;;;;;;5053718;28;20224;-72
2023/07/23 04:03:23;;;;;;;4.97;2.83;;;21.70;63.20;;;;;;5054686;28;20218;-72
2023/07/23 04:05:50;;;;;;;3.40;2.90;;;21.70;63.20;;;;;;5054612;28;20206;-72
2023/07/23 04:08:17;;;;;;;3.73;2.70;;;21.60;63.10;;;;;;5054404;28;20224;-72
2023/07/23 04:10:43;;;;;;;3.53;2.90;;;21.60;63.30;;;;;;5053729;28;20220;-72
2023/07/23 04:13:10;;;;;;;3.07;2.77;;;21.50;63.30;;;;;;5054347;28;20594;-72
2023/07/23 04:15:38;;;;;;;3.00;2.67;;;21.40;63.60;;;;;;5053944;28;20226;-72
2023/07/23 04:18:14;;;;;;;4.20;3.00;;;21.40;63.60;;;;;;5053885;28;20237;-72
2023/07/23 04:20:41;;;;;;;3.20;2.90;;;21.30;64.10;;;;;;5053907;28;20237;-72
2023/07/23 04:23:08;;;;;;;3.10;2.80;;;21.30;63.80;;;;;;5053705;28;20226;-72
2023/07/23 04:25:35;;;;;;;4.00;3.10;;;21.40;63.90;;;;;;5053781;28;20679;-72
2023/07/23 04:28:02;;;;;;;3.67;2.90;;;21.40;63.80;;;;;;5054085;28;20236;-72
2023/07/23 04:30:29;;;;;;;3.10;2.80;;;21.40;64.40;;;;;;5053670;28;20597;-72
2023/07/23 04:32:57;;;;;;;3.20;2.90;;;21.40;63.80;;;;;;5053931;28;20213;-72
2023/07/23 04:35:24;;;;;;;3.43;2.83;;;21.40;63.60;;;;;;5053747;28;20205;-72
2023/07/23 04:37:51;;;;;;;3.47;2.53;;;21.40;63.60;;;;;;5053759;28;20308;-72
2023/07/23 04:40:18;;;;;;;3.30;3.00;;;21.40;63.60;;;;;;5053285;28;20707;-72
2023/07/23 04:42:44;;;;;;;4.13;2.80;;;21.40;63.60;;;;;;5053546;28;20204;-72
2023/07/23 04:45:11;;;;;;;3.00;2.70;;;21.40;63.90;;;;;;5053168;28;20244;-72
2023/07/23 04:47:40;;;;;;;3.60;3.13;;;21.40;63.80;;;;;;5053710;28;20206;-72
2023/07/23 04:50:09;;;;;;;3.03;2.70;;;21.50;63.80;;;;;;5053511;28;20226;-72
2023/07/23 04:52:35;;;;;;;3.50;2.90;;;21.60;64.20;;;;;;5052894;28;20205;-72
2023/07/23 04:55:02;;;;;;;4.83;3.17;;;21.60;63.80;;;;;;5053581;28;20620;-72
2023/07/23 04:57:30;;;;;;;4.73;3.00;;;21.70;63.90;;;;;;5053219;28;20676;-72
2023/07/23 04:59:56;;;;;;;5.57;2.70;;;21.80;63.60;;;;;;5052945;28;20260;-72
2023/07/23 05:02:23;;;;;;;2.97;2.70;;;21.90;64.30;;;;;;5053184;28;20182;-72
2023/07/23 05:04:50;;;;;;;3.10;2.80;;;22.00;64.20;;;;;;5053314;28;20231;-71
2023/07/23 05:07:18;;;;;;;4.47;2.70;;;22.00;63.20;;;;;;5053308;28;20214;-72
2023/07/23 05:09:45;;;;;;;2.87;2.67;;;22.10;63.50;;;;;;5052491;28;20552;-72
2023/07/23 05:12:12;;;;;;;5.23;2.60;;;22.20;63.90;;;;;;5052677;28;20212;-71
2023/07/23 05:14:38;;;;;;;3.67;2.57;;;22.20;64.10;;;;;;5052930;28;20222;-72
2023/07/23 05:17:05;;;;;;;3.53;2.53;;;22.20;63.40;;;;;;5053316;28;20210;-72
2023/07/23 05:19:32;;;;;;;2.83;2.53;;;22.30;63.20;;;;;;5052757;28;20364;-72
2023/07/23 05:21:59;;;;;;;3.60;2.57;;;22.40;62.40;;;;;;5052631;28;20229;-72
2023/07/23 05:24:27;;;;;;;2.83;2.60;;;22.50;62.10;;;;;;5052687;28;20729;-72
2023/07/23 05:26:54;;;;;;;2.60;2.40;;;22.50;61.90;;;;;;5052702;28;20229;-72
2023/07/23 05:29:21;;;;;;;3.40;2.60;;;22.60;62.50;;;;;;5053047;28;20190;-72
2023/07/23 05:31:48;;;;;;;3.47;3.00;;;22.70;61.60;;;;;;5052423;28;20230;-72
2023/07/23 05:34:14;;;;;;;2.70;2.40;;;22.70;61.90;;;;;;5052516;28;20670;-73
2023/07/23 05:36:41;;;;;;;2.83;2.53;;;22.80;62.00;;;;;;5052990;28;20202;-72
2023/07/23 05:39:09;;;;;;;3.30;2.70;;;22.80;61.80;;;;;;5052917;28;20209;-72
2023/07/23 05:41:37;;;;;;;2.80;2.50;;;22.90;61.60;;;;;;5052021;28;20224;-72
2023/07/23 05:44:04;;;;;;;3.00;2.70;;;22.90;61.30;;;;;;5034433;28;20222;-72
2023/07/23 05:46:30;;;;;;;2.60;2.40;;;22.90;61.00;;;;;;5032999;28;20218;-72
2023/07/23 05:48:57;;;;;;;2.80;2.60;;;23.00;60.60;;;;;;5032597;28;20231;-72
2023/07/23 05:51:24;;;;;;;3.33;2.90;;;23.00;60.50;;;;;;5032559;28;20210;-72
2023/07/23 05:53:51;;;;;;;2.83;2.50;;;23.10;60.00;;;;;;5032307;28;20233;-72
2023/07/23 05:56:18;;;;;;;3.13;2.30;;;23.10;60.00;;;;;;5032529;28;20206;-72
2023/07/23 05:58:46;;;;;;;3.60;2.80;;;23.10;60.00;;;;;;5032636;28;20240;-72
2023/07/23 06:01:13;;;;;;;2.93;2.67;;;23.10;59.80;;;;;;5032317;28;20207;-72
2023/07/23 06:03:39;;;;;;;4.07;2.30;;;23.20;59.80;;;;;;5032057;28;20703;-71
2023/07/23 06:06:06;;;;;;;3.47;2.50;;;23.30;59.60;;;;;;5032783;28;20197;-72
2023/07/23 06:08:33;;;;;;;2.60;2.40;;;23.30;59.60;;;;;;5032668;28;20225;-72
2023/07/23 06:11:00;;;;;;;3.23;2.90;;;23.30;59.30;;;;;;5032090;28;20208;-72
2023/07/23 06:13:27;;;;;;;3.93;2.33;;;23.30;59.20;;;;;;5032530;28;20202;-72
2023/07/23 06:15:55;;;;;;;3.80;2.30;;;23.40;59.00;;;;;;5032286;28;20304;-72
2023/07/23 06:18:22;;;;;;;2.67;2.40;;;23.40;58.90;;;;;;5032132;28;20209;-72
2023/07/23 06:20:48;;;;;;;3.10;2.60;;;23.30;59.00;;;;;;5031925;28;20230;-72
2023/07/23 06:23:15;;;;;;;3.23;2.67;;;23.40;58.80;;;;;;5036208;28;20221;-70
2023/07/23 06:25:42;;;;;;;2.70;2.50;;;23.40;58.60;;;;;;5035912;28;20238;-72
2023/07/23 06:28:09;;;;;;;3.17;2.87;;;23.50;58.30;;;;;;5036281;28;20690;-72
2023/07/23 06:30:36;;;;;;;2.57;2.37;;;23.50;58.20;;;;;;5036176;28;20236;-72
2023/07/23 06:33:04;;;;;;;2.53;2.33;;;23.60;58.30;;;;;;5035876;28;20225;-72
2023/07/23 06:35:37;;;;;;;2.50;2.30;;;23.60;58.10;;;;;;5036272;28;20291;-72
2023/07/23 06:38:04;;;;;;;3.37;2.70;;;23.70;57.70;;;;;;5036401;28;20187;-72
2023/07/23 06:40:30;;;;;;;5.73;3.03;;;23.70;57.70;;;;;;5035305;28;20222;-72
2023/07/23 06:42:57;;;;;;;3.20;2.50;;;23.70;57.80;;;;;;5044807;28;20186;-72
2023/07/23 06:45:24;;;;;;;2.67;2.47;;;23.90;57.80;;;;;;5056081;28;20231;-72
2023/07/23 06:47:51;;;;;;;2.67;2.47;;;24.00;57.80;;;;;;5055929;28;20560;-72
2023/07/23 06:50:19;;;;;;;3.70;2.23;;;24.10;57.40;;;;;;5055876;28;20205;-72
2023/07/23 06:52:46;;;;;;;3.00;2.70;;;24.20;57.10;;;;;;5055593;28;20251;-72
2023/07/23 06:55:13;;;;;;;3.03;2.27;;;24.30;57.00;;;;;;5055586;28;20208;-72
2023/07/23 06:57:39;;;;;;;2.47;2.17;;;24.30;57.10;;;;;;5055739;28;20228;-72
2023/07/23 07:00:07;;;;;;;2.20;2.00;;;24.40;56.60;;;;;;5055376;28;20687;-72
2023/07/23 07:02:35;;;;;;;2.43;2.10;;;24.40;56.80;;;;;;5055225;28;20596;-72
2023/07/23 07:05:02;;;;;;;2.70;2.47;;;24.40;56.50;;;;;;5055610;28;20565;-72
2023/07/23 07:07:30;;;;;;;3.40;2.70;;;24.40;56.20;;;;;;5055324;28;20261;-72
2023/07/23 07:09:57;;;;;;;2.80;2.47;;;24.50;56.00;;;;;;5055492;28;20192;-72
2023/07/23 07:12:25;;;;;;;2.57;2.30;;;24.50;56.10;;;;;;5054847;28;20205;-72
2023/07/23 07:14:52;;;;;;;2.40;2.20;;;24.50;55.90;;;;;;5055146;28;20213;-72
2023/07/23 07:17:19;;;;;;;2.63;2.33;;;24.40;56.00;;;;;;5055507;28;20240;-72
2023/07/23 07:19:46;;;;;;;3.50;2.50;;;24.40;55.80;;;;;;5054276;28;20233;-72
2023/07/23 07:22:13;;;;;;;3.50;2.57;;;24.40;55.80;;;;;;5054983;28;20208;-72
2023/07/23 07:24:41;;;;;;;4.03;2.50;;;24.40;55.80;;;;;;5054954;28;20247;-72
2023/07/23 07:27:10;;;;;;;3.37;2.70;;;24.40;55.90;;;;;;5055022;28;20642;-72
2023/07/23 07:29:41;;;;;;;2.57;2.37;;;24.40;56.10;;;;;;5055078;28;20287;-71
2023/07/23 07:32:08;;;;;;;2.90;2.60;;;24.50;56.00;;;;;;5054515;28;20614;-71
2023/07/23 07:34:35;;;;;;;3.57;2.30;;;24.60;56.10;;;;;;5054166;28;20692;-71
2023/07/23 07:37:02;;;;;;;2.60;2.40;;;24.60;55.90;;;;;;5054872;28;20225;-71
2023/07/23 07:39:29;;;;;;;3.20;2.87;;;24.60;56.40;;;;;;5054775;28;20255;-71
2023/07/23 07:41:57;;;;;;;3.00;2.50;;;24.70;55.90;;;;;;5054501;28;20213;-71
2023/07/23 07:44:24;;;;;;;2.63;2.43;;;24.80;55.70;;;;;;5054381;28;20739;-71
2023/07/23 07:46:51;;;;;;;3.67;3.00;;;24.80;56.40;;;;;;5054748;28;20343;-71
2023/07/23 07:49:18;;;;;;;3.30;2.40;;;24.80;55.80;;;;;;5054797;28;20228;-72
2023/07/23 07:51:47;;;;;;;2.80;2.60;;;24.80;55.50;;;;;;5054014;28;20202;-72
2023/07/23 07:54:14;;;;;;;2.67;2.47;;;24.80;55.70;;;;;;5054666;28;20217;-72
2023/07/23 07:56:43;;;;;;;3.30;2.80;;;24.90;55.70;;;;;;5054528;28;20209;-72
2023/07/23 07:59:12;;;;;;;2.57;2.37;;;24.90;55.80;;;;;;5054258;28;20292;-72
2023/07/23 08:01:39;;;;;;;3.50;2.63;;;25.00;55.90;;;;;;5054088;28;20222;-72
2023/07/23 08:04:07;;;;;;;2.80;2.50;;;25.00;55.50;;;;;;5054416;28;20207;-72
2023/07/23 08:06:34;;;;;;;3.43;2.23;;;25.10;55.30;;;;;;5054242;28;20237;-72
2023/07/23 08:09:03;;;;;;;2.30;2.07;;;25.10;55.20;;;;;;5054463;28;20224;-72
2023/07/23 08:11:31;;;;;;;3.63;2.30;;;25.10;55.10;;;;;;5053877;28;20271;-72
2023/07/23 08:13:58;;;;;;;2.37;2.17;;;25.20;55.40;;;;;;5054018;28;20217;-72
2023/07/23 08:16:27;;;;;;;2.60;2.40;;;25.30;55.40;;;;;;5054390;28;20226;-72
2023/07/23 08:18:54;;;;;;;2.43;2.23;;;25.30;55.00;;;;;;5054024;28;20688;-72
2023/07/23 08:21:22;;;;;;;3.27;2.17;;;25.30;54.80;;;;;;5053875;28;20212;-72
2023/07/23 08:23:50;;;;;;;2.53;2.33;;;25.40;54.70;;;;;;5053759;28;20197;-72
2023/07/23 08:26:20;;;;;;;3.10;2.30;;;25.40;54.70;;;;;;5054165;28;20234;-71
2023/07/23 08:28:51;;;;;;;2.30;1.90;;;25.60;54.70;;;;;;5054131;28;20298;-72
2023/07/23 08:31:19;;;;;;;2.30;2.00;;;25.70;54.30;;;;;;5053638;28;20226;-72
2023/07/23 08:33:48;;;;;;;2.53;2.00;;;25.70;53.70;;;;;;5053791;28;20268;-73
2023/07/23 08:36:16;;;;;;;2.63;2.30;;;25.80;53.60;;;;;;5053773;28;20201;-72
2023/07/23 08:38:44;;;;;;;2.57;2.20;;;25.90;53.70;;;;;;5053757;28;20210;-72
2023/07/23 08:41:23;;;;;;;2.30;2.10;;;25.90;53.70;;;;;;5053729;28;20206;-72
2023/07/23 08:44:23;;;;;;;2.10;1.93;;;26.00;53.50;;;;;;5053002;28;20884;-72
2023/07/23 08:46:52;;;;;;;2.20;1.90;;;26.10;53.20;;;;;;5051079;28;20211;-72
2023/07/23 08:49:24;;;;;;;2.53;2.07;;;26.20;53.20;;;;;;5053397;28;20230;-72
2023/07/23 08:51:50;;;;;;;4.53;2.10;;;26.10;53.00;;;;;;5053170;28;20209;-72
2023/07/23 08:54:19;;;;;;;2.30;2.10;;;26.20;53.20;;;;;;5053160;28;20697;-72
2023/07/23 08:56:46;;;;;;;3.83;2.00;;;26.30;53.70;;;;;;5053541;28;20200;-72
2023/07/23 08:59:13;;;;;;;2.70;2.10;;;26.40;52.70;;;;;;5053320;28;20698;-72
2023/07/23 09:01:41;;;;;;;3.20;2.10;;;26.40;53.10;;;;;;5053290;28;20207;-72
2023/07/23 09:04:11;;;;;;;2.87;1.93;;;26.70;53.30;;;;;;5052601;28;20237;-72
2023/07/23 09:06:42;;;;;;;4.13;2.30;;;26.70;52.30;;;;;;5053652;28;20230;-72
2023/07/23 09:09:10;;;;;;;2.40;2.07;;;26.70;52.20;;;;;;5053352;28;20256;-72
2023/07/23 09:11:38;;;;;;;2.00;1.77;;;26.80;52.10;;;;;;5052960;28;20202;-72
2023/07/23 09:14:09;;;;;;;2.97;1.80;;;26.90;52.10;;;;;;5053053;28;20574;-72
2023/07/23 09:16:37;;;;;;;2.30;2.10;;;26.90;51.70;;;;;;5053399;28;20237;-72
2023/07/23 09:19:04;;;;;;;3.50;2.07;;;26.90;51.30;;;;;;5052962;28;20628;-72
2023/07/23 09:21:31;;;;;;;2.53;2.10;;;26.80;51.10;;;;;;5052948;28;20304;-71
2023/07/23 09:24:02;;;;;;;2.63;1.90;;;26.80;50.50;;;;;;5052683;28;20209;-71
2023/07/23 09:26:29;;;;;;;2.20;2.00;;;26.80;50.70;;;;;;5052655;28;20237;-72
2023/07/23 09:28:57;;;;;;;2.20;2.00;;;26.90;50.70;;;;;;5052971;28;20211;-72
2023/07/23 09:31:27;;;;;;;2.83;2.00;;;27.10;50.60;;;;;;5052664;28;20229;-72
2023/07/23 09:33:55;;;;;;;5.57;1.97;;;27.30;49.80;;;;;;5052298;28;20215;-72
2023/07/23 09:36:23;;;;;;;2.00;1.80;;;27.40;50.90;;;;;;5052883;28;20602;-71
2023/07/23 09:38:54;;;;;;;3.00;2.20;;;27.50;49.60;;;;;;5052649;28;20215;-71
2023/07/23 09:41:23;;;;;;;1.97;1.87;;;27.60;49.40;;;;;;5052435;28;20232;-72
2023/07/23 09:43:50;;;;;;;2.67;1.67;;;27.70;49.30;;;;;;5036536;28;20214;-71
2023/07/23 09:46:17;;;;;;;2.50;2.23;;;27.80;49.20;;;;;;5032497;28;20326;-71
2023/07/23 09:48:48;;;;;;;2.10;1.90;;;27.90;49.30;;;;;;5032753;28;20187;-71
2023/07/23 09:51:15;;;;;;;4.87;2.03;;;28.00;48.80;;;;;;5032570;28;20201;-72
2023/07/23 09:53:45;;;;;;;2.43;2.23;;;28.10;48.80;;;;;;5032774;28;20190;-72
2023/07/23 09:56:13;;;;;;;2.87;1.97;;;28.20;49.00;;;;;;5032153;28;20646;-71
2023/07/23 09:58:43;;;;;;;2.20;2.00;;;28.30;48.90;;;;;;5032438;28;20211;-70
2023/07/23 10:01:10;;;;;;;2.33;2.13;;;28.50;48.60;;;;;;5032714;28;20208;-71
2023/07/23 10:03:38;;;;;;;2.40;2.13;;;28.60;48.50;;;;;;5031875;28;20784;-72
2023/07/23 10:06:10;;;;;;;2.30;2.10;;;28.80;48.30;;;;;;5032667;28;20232;-72
2023/07/23 10:08:39;;;;;;;3.60;2.50;;;28.90;47.30;;;;;;5032642;28;20846;-72
2023/07/23 10:11:07;;;;;;;2.67;2.10;;;28.90;46.90;;;;;;5032171;28;20210;-72
2023/07/23 10:13:34;;;;;;;2.80;2.20;;;28.80;47.50;;;;;;5032221;28;20234;-72
2023/07/23 10:16:04;;;;;;;3.33;2.17;;;28.90;47.40;;;;;;5032611;28;20564;-72
2023/07/23 10:18:32;;;;;;;2.50;2.30;;;28.90;46.50;;;;;;5032325;28;20375;-71
2023/07/23 10:20:59;;;;;;;2.53;2.33;;;28.90;46.50;;;;;;5032422;28;20634;-71
2023/07/23 10:23:27;;;;;;;2.47;2.27;;;28.90;46.90;;;;;;5032036;28;20237;-71
2023/07/23 10:26:19;;;;;;;2.80;2.17;;;28.90;46.90;;;;;;5032456;28;20272;-71
2023/07/23 10:28:46;;;;;;;2.97;2.40;;;29.00;47.00;;;;;;5032286;28;20226;-71
2023/07/23 10:31:22;;;;;;;2.63;2.40;;;29.10;47.40;;;;;;5032135;28;20202;-71
2023/07/23 10:33:50;;;;;;;2.43;2.23;;;29.10;46.20;;;;;;5031801;28;20210;-72
2023/07/23 10:36:18;;;;;;;2.70;2.43;;;29.20;46.10;;;;;;5032533;28;20282;-71
2023/07/23 10:38:46;;;;;;;2.83;2.63;;;29.20;46.20;;;;;;5032332;28;20226;-71
2023/07/23 10:41:13;;;;;;;3.40;2.50;;;29.40;46.00;;;;;;5032514;28;20301;-71
2023/07/23 10:43:43;;;;;;;2.83;2.57;;;29.50;45.60;;;;;;5046395;28;20205;-71
2023/07/23 10:46:11;;;;;;;4.33;2.50;;;29.60;45.70;;;;;;5051977;28;20227;-71
2023/07/23 10:48:40;;;;;;;3.83;2.40;;;29.60;46.00;;;;;;5051951;28;20225;-71
2023/07/23 10:51:08;;;;;;;2.43;2.23;;;29.60;45.60;;;;;;5051960;28;20316;-71
2023/07/23 10:53:39;;;;;;;2.90;2.60;;;29.50;46.10;;;;;;5051820;28;20260;-72
2023/07/23 10:56:25;;;;;;;4.20;2.70;;;29.40;45.30;;;;;;5052544;28;20240;-71
2023/07/23 10:58:55;;;;;;;2.37;2.17;;;29.30;45.80;;;;;;5051980;28;20296;-71
2023/07/23 11:01:23;;;;;;;3.20;2.50;;;29.40;46.10;;;;;;5051425;28;20237;-71
2023/07/23 11:03:55;;;;;;;2.83;2.53;;;29.30;46.20;;;;;;5051632;28;20213;-71
2023/07/23 11:06:29;;;;;;;3.47;2.60;;;29.40;45.60;;;;;;5051966;28;20233;-71
2023/07/23 11:08:58;;;;;;;2.50;2.30;;;29.40;45.60;;;;;;5053489;28;20201;-71
2023/07/23 11:11:40;;;;;;;3.60;2.60;;;29.60;46.10;;;;;;5055494;28;20328;-71
2023/07/23 11:14:21;;;;;;;2.90;2.70;;;29.70;45.90;;;;;;5055235;28;20225;-72
2023/07/23 11:16:49;;;;;;;2.80;2.47;;;29.70;45.20;;;;;;5055236;28;20316;-71
2023/07/23 11:19:20;;;;;;;4.03;2.60;;;29.70;44.90;;;;;;5055121;28;20229;-71
2023/07/23 11:21:49;;;;;;;2.70;2.50;;;29.70;45.00;;;;;;5055300;28;20230;-71
2023/07/23 11:24:17;;;;;;;3.20;2.70;;;29.80;45.30;;;;;;5054841;28;20593;-71
2023/07/23 11:26:44;;;;;;;2.80;2.43;;;29.90;45.80;;;;;;5055137;28;20585;-71
2023/07/23 11:29:11;;;;;;;2.70;2.50;;;30.00;45.40;;;;;;5054900;28;20190;-71
2023/07/23 11:31:39;;;;;;;3.63;2.90;;;29.90;45.20;;;;;;5054850;28;20707;-71
2023/07/23 11:34:06;;;;;;;2.63;2.33;;;29.90;45.40;;;;;;5054921;28;20741;-71
2023/07/23 11:36:35;;;;;;;3.50;2.43;;;29.90;45.60;;;;;;5054979;28;20197;-71
2023/07/23 11:39:02;;;;;;;3.97;2.70;;;29.90;45.00;;;;;;5054796;28;20229;-71
2023/07/23 11:41:32;;;;;;;2.70;2.50;;;29.90;44.60;;;;;;5055083;28;20228;-71
2023/07/23 11:44:00;;;;;;;3.80;2.50;;;29.90;43.40;;;;;;5054763;28;20611;-71
2023/07/23 11:46:27;;;;;;;3.43;2.77;;;29.90;43.60;;;;;;5054777;28;20747;-71
2023/07/23 11:48:55;;;;;;;2.93;2.40;;;29.80;43.00;;;;;;5054908;28;20229;-71
2023/07/23 11:51:22;;;;;;;2.70;2.50;;;29.80;43.40;;;;;;5054940;28;20222;-71
2023/07/23 11:53:52;;;;;;;3.27;2.57;;;29.80;43.50;;;;;;5054685;28;20233;-72
2023/07/23 11:56:23;;;;;;;2.67;2.40;;;29.90;43.10;;;;;;5063039;28;20197;-71
2023/07/23 11:58:50;;;;;;;3.60;2.30;;;30.10;43.20;;;;;;5066910;28;20234;-71
2023/07/23 12:01:17;;;;;;;3.80;2.40;;;30.10;43.10;;;;;;5066797;28;20605;-71
2023/07/23 12:03:46;;;;;;;3.60;2.73;;;30.30;42.50;;;;;;5067542;28;20201;-71
2023/07/23 12:06:14;;;;;;;3.53;2.50;;;30.50;42.90;;;;;;5057632;28;20264;-71
2023/07/23 12:08:43;;;;;;;2.33;2.13;;;30.50;42.00;;;;;;5054288;28;20236;-71
2023/07/23 12:11:12;;;;;;;3.03;2.33;;;30.50;41.50;;;;;;5054139;28;20206;-71
2023/07/23 12:13:43;;;;;;;5.97;2.20;;;30.60;42.10;;;;;;5052959;28;20662;-71
2023/07/23 12:16:14;;;;;;;2.50;2.30;;;30.80;42.10;;;;;;5053909;28;20312;-71
2023/07/23 12:18:47;;;;;;;2.47;2.27;;;30.90;41.80;;;;;;5053728;28;20572;-71
2023/07/23 12:21:20;;;;;;;3.97;2.17;;;31.10;41.40;;;;;;5053795;28;20244;-71
2023/07/23 12:23:47;;;;;;;2.60;2.40;;;31.30;40.90;;;;;;5053713;28;20198;-71
2023/07/23 12:26:15;;;;;;;2.53;2.33;;;31.50;39.10;;;;;;5054112;28;20599;-71
2023/07/23 12:28:42;;;;;;;4.83;2.70;;;31.50;38.90;;;;;;5053640;28;20206;-71
2023/07/23 12:31:09;;;;;;;2.40;2.20;;;31.60;38.20;;;;;;5054004;28;20233;-71
2023/07/23 12:33:36;;;;;;;2.77;2.57;;;31.50;37.90;;;;;;5053741;28;20637;-71
2023/07/23 12:36:04;;;;;;;3.33;2.47;;;31.30;38.10;;;;;;5053742;28;20689;-71
2023/07/23 12:38:31;;;;;;;2.67;2.40;;;31.10;38.80;;;;;;5018660;28;20202;-71
2023/07/23 12:40:58;;;;;;;4.50;2.60;;;31.30;39.40;;;;;;5053642;28;20222;-72
2023/07/23 12:43:26;;;;;;;3.30;2.20;;;31.30;37.90;;;;;;5053296;28;20285;-71
2023/07/23 12:45:53;;;;;;;2.60;2.37;;;31.30;37.90;;;;;;5053705;28;20208;-72
2023/07/23 12:48:21;;;;;;;2.90;2.40;;;31.30;37.50;;;;;;5053858;28;20214;-71
2023/07/23 12:50:48;;;;;;;5.27;2.30;;;31.40;37.70;;;;;;5053708;28;20211;-71